Time;durP1;ratioP1;P1;durP2;ratioP2;P2;SDS_P1;SDS_P2;PMS_P1;PMS_P2;Temp;Humidity;BMP_temperature;BMP_pressure;BME280_temperature;BME280_humidity;BME280_pressure;Samples;Min_cycle;Max_cycle;Signal;HPM_P1;HPM_P2
2021/04/29 00:01:10;;;;;;;5.72;2.80;;;18.20;51.20;;;;;;5051060;28;20055;-64
2021/04/29 00:03:35;;;;;;;7.00;3.03;;;18.20;51.20;;;;;;5050863;28;20041;-63
2021/04/29 00:06:02;;;;;;;6.43;2.90;;;18.20;51.40;;;;;;5051025;28;20028;-62
2021/04/29 00:08:28;;;;;;;5.60;2.80;;;18.20;51.30;;;;;;5051126;28;20025;-64
2021/04/29 00:10:53;;;;;;;6.00;3.15;;;18.20;51.30;;;;;;5050971;28;20033;-63
2021/04/29 00:13:19;;;;;;;5.38;2.75;;;18.10;51.30;;;;;;5051359;28;20059;-64
2021/04/29 00:15:47;;;;;;;5.05;2.70;;;18.20;51.40;;;;;;5050675;28;20387;-66
2021/04/29 00:18:16;;;;;;;6.38;2.83;;;18.10;51.40;;;;;;5055090;28;20392;-66
2021/04/29 00:20:42;;;;;;;7.43;2.97;;;18.10;51.40;;;;;;5037020;28;20076;-64
2021/04/29 00:23:08;;;;;;;5.50;2.58;;;18.10;51.40;;;;;;5054692;28;20497;-64
2021/04/29 00:25:33;;;;;;;6.20;2.85;;;18.10;52.00;;;;;;5055018;28;20036;-65
2021/04/29 00:27:59;;;;;;;6.93;2.92;;;18.10;51.40;;;;;;5037191;28;20474;-64
2021/04/29 00:30:24;;;;;;;5.57;2.90;;;18.10;51.50;;;;;;5054298;28;20025;-63
2021/04/29 00:32:50;;;;;;;4.68;2.60;;;18.10;51.60;;;;;;5036739;28;20032;-66
2021/04/29 00:35:16;;;;;;;5.03;2.72;;;18.10;51.50;;;;;;5054382;28;20037;-64
2021/04/29 00:37:41;;;;;;;5.50;2.85;;;18.10;51.50;;;;;;5054942;28;20036;-64
2021/04/29 00:40:08;;;;;;;5.72;2.67;;;18.10;51.50;;;;;;5054949;28;20446;-64
2021/04/29 00:42:40;;;;;;;7.00;2.72;;;18.00;51.40;;;;;;5054729;28;20488;-64
2021/04/29 00:45:15;;;;;;;6.25;2.80;;;18.10;51.70;;;;;;5036622;28;20034;-64
2021/04/29 00:47:42;;;;;;;6.25;2.70;;;18.00;51.70;;;;;;5054773;28;20033;-66
2021/04/29 00:50:10;;;;;;;5.57;3.05;;;18.00;51.60;;;;;;5036784;28;20504;-63
2021/04/29 00:52:35;;;;;;;4.85;2.70;;;18.00;51.50;;;;;;5054284;28;20509;-64
2021/04/29 00:55:02;;;;;;;5.05;2.75;;;18.00;51.50;;;;;;5054002;28;20100;-64
2021/04/29 00:57:27;;;;;;;4.88;2.55;;;18.00;51.50;;;;;;5054691;28;20078;-63
2021/04/29 00:59:54;;;;;;;6.53;2.80;;;18.00;51.70;;;;;;5054724;28;20028;-63
2021/04/29 01:02:22;;;;;;;6.05;2.80;;;18.00;51.50;;;;;;5049881;28;20032;-64
2021/04/29 01:04:59;;;;;;;5.38;2.83;;;17.90;51.70;;;;;;5035226;28;20017;-64
2021/04/29 01:07:28;;;;;;;6.00;3.13;;;18.00;51.60;;;;;;5035421;28;20098;-63
2021/04/29 01:10:01;;;;;;;11.88;3.45;;;18.00;51.70;;;;;;5053307;28;20041;-63
2021/04/29 01:12:38;;;;;;;6.82;2.97;;;17.90;51.70;;;;;;5053610;28;20029;-65
2021/04/29 01:15:05;;;;;;;6.07;3.10;;;17.90;51.70;;;;;;5035770;28;20510;-64
2021/04/29 01:17:31;;;;;;;6.80;3.20;;;17.90;51.70;;;;;;5052529;28;20032;-64
2021/04/29 01:20:07;;;;;;;6.32;3.08;;;17.90;51.80;;;;;;5036091;28;20025;-63
2021/04/29 01:22:43;;;;;;;5.43;3.03;;;17.90;51.80;;;;;;5052453;28;20032;-64
2021/04/29 01:25:13;;;;;;;5.53;2.85;;;17.90;51.80;;;;;;5053611;28;20094;-62
2021/04/29 01:27:39;;;;;;;6.85;3.33;;;17.90;51.90;;;;;;5053770;28;20144;-64
2021/04/29 01:30:08;;;;;;;5.10;3.08;;;17.90;51.90;;;;;;5053823;28;20033;-63
2021/04/29 01:32:35;;;;;;;5.30;3.40;;;17.80;51.90;;;;;;5053756;28;20108;-64
2021/04/29 01:35:03;;;;;;;5.57;3.38;;;17.90;52.00;;;;;;5035472;28;20040;-64
2021/04/29 01:37:29;;;;;;;6.80;3.80;;;17.80;51.90;;;;;;5053948;28;20056;-64
2021/04/29 01:39:54;;;;;;;6.32;3.42;;;17.80;51.80;;;;;;5034957;28;20029;-66
2021/04/29 01:42:20;;;;;;;5.55;3.17;;;17.80;52.00;;;;;;5053822;28;20573;-64
2021/04/29 01:44:46;;;;;;;5.78;3.40;;;17.80;51.90;;;;;;5053601;28;20055;-64
2021/04/29 01:47:11;;;;;;;5.45;3.30;;;17.80;51.80;;;;;;5053941;28;20064;-63
2021/04/29 01:49:37;;;;;;;7.25;3.28;;;17.80;51.80;;;;;;5053430;28;20536;-65
2021/04/29 01:52:04;;;;;;;4.90;2.60;;;17.80;52.00;;;;;;5035461;28;20033;-63
2021/04/29 01:54:30;;;;;;;5.70;3.33;;;17.80;52.00;;;;;;5039319;28;20052;-63
2021/04/29 01:56:55;;;;;;;5.93;2.72;;;17.80;52.10;;;;;;5053355;28;20079;-63
2021/04/29 01:59:22;;;;;;;5.97;2.80;;;17.80;52.00;;;;;;5053273;28;20021;-64
2021/04/29 02:01:48;;;;;;;5.57;2.80;;;17.80;52.10;;;;;;5053165;28;20035;-63
2021/04/29 02:04:13;;;;;;;5.38;2.60;;;17.80;52.00;;;;;;5053359;28;20091;-63
2021/04/29 02:06:44;;;;;;;5.35;3.03;;;17.80;52.00;;;;;;5053115;28;20553;-64
2021/04/29 02:09:11;;;;;;;5.47;2.60;;;17.70;52.20;;;;;;5052889;28;20036;-64
2021/04/29 02:11:45;;;;;;;5.65;2.50;;;17.70;52.10;;;;;;5034749;28;20037;-64
2021/04/29 02:14:13;;;;;;;5.70;2.80;;;17.80;52.10;;;;;;5053163;28;20021;-64
2021/04/29 02:16:44;;;;;;;4.88;2.40;;;17.80;52.10;;;;;;5053090;28;20056;-63
2021/04/29 02:19:10;;;;;;;4.90;2.65;;;17.70;52.00;;;;;;5051533;28;20112;-64
2021/04/29 02:21:40;;;;;;;5.25;2.42;;;17.70;52.10;;;;;;5077673;22;20045;-65
2021/04/29 02:24:07;;;;;;;4.47;2.50;;;17.70;52.20;;;;;;5050498;28;20082;-65
2021/04/29 02:26:33;;;;;;;5.30;2.30;;;17.70;52.40;;;;;;5052694;28;20025;-65
2021/04/29 02:28:58;;;;;;;5.07;2.53;;;17.70;52.20;;;;;;5052111;28;20036;-65
2021/04/29 02:31:24;;;;;;;4.82;2.53;;;17.70;52.30;;;;;;5047752;28;20025;-65
2021/04/29 02:33:52;;;;;;;4.00;2.40;;;17.70;52.30;;;;;;5051028;28;20119;-65
2021/04/29 02:36:17;;;;;;;4.68;2.50;;;17.60;52.20;;;;;;5051355;28;20025;-63
2021/04/29 02:38:43;;;;;;;5.50;2.40;;;17.70;52.20;;;;;;5052217;28;20035;-64
2021/04/29 02:41:09;;;;;;;5.10;2.35;;;17.60;52.20;;;;;;5047279;28;20033;-65
2021/04/29 02:43:35;;;;;;;5.47;2.72;;;17.60;52.30;;;;;;5052281;28;20472;-65
2021/04/29 02:46:02;;;;;;;5.90;2.70;;;17.70;52.20;;;;;;5052444;28;20503;-64
2021/04/29 02:48:27;;;;;;;4.45;2.30;;;17.70;52.20;;;;;;5052620;28;20421;-67
2021/04/29 02:50:54;;;;;;;5.32;2.30;;;17.70;52.30;;;;;;5052043;28;20033;-65
2021/04/29 02:53:20;;;;;;;4.82;2.60;;;17.70;52.20;;;;;;5050933;28;20033;-65
2021/04/29 02:55:48;;;;;;;5.47;2.60;;;17.60;52.20;;;;;;5051869;28;20032;-65
2021/04/29 02:58:15;;;;;;;3.97;2.30;;;17.60;52.30;;;;;;5050805;28;20396;-65
2021/04/29 03:00:42;;;;;;;4.97;2.60;;;17.70;52.30;;;;;;5040072;28;20028;-65
2021/04/29 03:03:08;;;;;;;5.00;2.28;;;17.60;52.30;;;;;;5052001;28;20060;-65
2021/04/29 03:05:35;;;;;;;3.80;2.35;;;17.60;52.30;;;;;;5052055;28;20049;-65
2021/04/29 03:08:01;;;;;;;4.07;2.47;;;17.60;52.30;;;;;;5034468;28;20032;-64
2021/04/29 03:10:27;;;;;;;4.65;2.30;;;17.60;52.40;;;;;;5039957;28;20037;-65
2021/04/29 03:12:53;;;;;;;4.22;2.28;;;17.60;52.30;;;;;;5050573;28;20385;-67
2021/04/29 03:15:20;;;;;;;5.22;2.10;;;17.60;52.20;;;;;;5051951;28;20021;-64
2021/04/29 03:17:45;;;;;;;4.65;2.35;;;17.60;52.30;;;;;;5051629;28;20037;-65
2021/04/29 03:20:12;;;;;;;4.05;2.10;;;17.60;52.40;;;;;;5038334;28;20024;-66
2021/04/29 03:22:38;;;;;;;5.55;2.00;;;17.60;52.40;;;;;;5066687;28;20582;-64
2021/04/29 03:25:04;;;;;;;4.75;2.60;;;17.60;52.30;;;;;;5051417;28;20053;-66
2021/04/29 03:27:30;;;;;;;4.38;2.40;;;17.60;52.30;;;;;;5070112;28;20035;-65
2021/04/29 03:29:56;;;;;;;4.28;2.30;;;17.60;52.30;;;;;;5053945;28;20479;-65
2021/04/29 03:32:22;;;;;;;3.80;2.22;;;17.60;52.30;;;;;;5052482;28;20515;-65
2021/04/29 03:34:48;;;;;;;4.13;2.35;;;17.60;52.40;;;;;;5033436;28;20033;-67
2021/04/29 03:37:13;;;;;;;4.43;2.30;;;17.60;52.50;;;;;;5044831;28;20052;-64
2021/04/29 03:39:39;;;;;;;4.68;2.10;;;17.60;52.30;;;;;;5051394;28;20086;-68
2021/04/29 03:42:09;;;;;;;4.15;2.20;;;17.60;52.50;;;;;;5033378;28;20514;-65
2021/04/29 03:44:36;;;;;;;3.58;2.08;;;17.60;52.30;;;;;;5036895;28;20052;-65
2021/04/29 03:47:02;;;;;;;5.35;2.58;;;17.60;52.30;;;;;;5051705;28;20099;-65
2021/04/29 03:49:28;;;;;;;4.63;2.40;;;17.60;52.40;;;;;;5048631;28;20432;-65
2021/04/29 03:51:53;;;;;;;4.70;2.60;;;17.60;52.40;;;;;;5050343;28;20068;-64
2021/04/29 03:54:19;;;;;;;4.82;2.50;;;17.50;52.90;;;;;;5049451;28;20028;-65
2021/04/29 03:56:45;;;;;;;4.25;2.30;;;17.50;52.50;;;;;;5057962;28;20484;-65
2021/04/29 03:59:11;;;;;;;3.72;2.28;;;17.50;52.60;;;;;;5051323;28;20063;-64
2021/04/29 04:01:37;;;;;;;3.85;2.10;;;17.50;52.50;;;;;;5051202;28;20429;-67
2021/04/29 04:04:02;;;;;;;5.50;2.30;;;17.60;52.60;;;;;;5062195;28;20036;-64
2021/04/29 04:06:28;;;;;;;5.03;2.47;;;17.50;52.50;;;;;;5055895;28;20516;-64
2021/04/29 04:08:53;;;;;;;3.58;2.20;;;17.50;52.70;;;;;;5050905;28;20021;-65
2021/04/29 04:11:19;;;;;;;4.70;2.40;;;17.50;52.50;;;;;;5044124;28;20029;-65
2021/04/29 04:13:44;;;;;;;3.30;2.15;;;17.50;52.50;;;;;;5051338;28;20029;-65
2021/04/29 04:16:12;;;;;;;3.90;2.17;;;17.50;52.40;;;;;;5050781;28;20373;-64
2021/04/29 04:18:38;;;;;;;5.07;2.47;;;17.50;52.60;;;;;;5050840;28;20510;-65
2021/04/29 04:21:05;;;;;;;3.80;2.30;;;17.50;52.60;;;;;;5050414;28;20451;-67
2021/04/29 04:23:30;;;;;;;4.55;2.40;;;17.50;52.70;;;;;;5050440;28;20029;-65
2021/04/29 04:25:56;;;;;;;3.70;2.15;;;17.50;52.80;;;;;;5050001;28;20041;-65
2021/04/29 04:28:21;;;;;;;6.95;2.60;;;17.50;53.20;;;;;;5025190;28;20033;-65
2021/04/29 04:30:47;;;;;;;7.15;2.70;;;17.50;52.90;;;;;;5026299;28;20029;-64
2021/04/29 04:33:12;;;;;;;5.25;2.40;;;17.50;53.00;;;;;;5044463;28;20376;-66
2021/04/29 04:35:39;;;;;;;5.40;2.58;;;17.50;52.90;;;;;;5027036;28;20455;-66
2021/04/29 04:38:05;;;;;;;5.53;2.58;;;17.50;53.30;;;;;;5043833;28;20017;-64
2021/04/29 04:40:31;;;;;;;5.85;2.50;;;17.40;53.40;;;;;;5044654;28;20094;-63
2021/04/29 04:42:57;;;;;;;5.95;2.25;;;17.50;53.30;;;;;;5043875;28;20412;-65
2021/04/29 04:45:22;;;;;;;6.32;2.60;;;17.50;53.60;;;;;;5043869;28;20112;-67
2021/04/29 04:47:48;;;;;;;3.75;2.00;;;17.40;53.40;;;;;;5044522;28;20033;-65
2021/04/29 04:50:13;;;;;;;6.38;2.78;;;17.40;53.40;;;;;;5033920;28;20400;-66
2021/04/29 04:52:39;;;;;;;4.95;2.58;;;17.40;54.40;;;;;;5026621;28;20816;-65
2021/04/29 04:55:05;;;;;;;5.75;2.67;;;17.40;54.00;;;;;;5043715;28;20041;-66
2021/04/29 04:57:31;;;;;;;4.68;2.55;;;17.40;54.40;;;;;;5029944;28;20036;-65
2021/04/29 04:59:56;;;;;;;5.45;2.42;;;17.40;53.80;;;;;;5031079;28;20025;-66
2021/04/29 05:02:22;;;;;;;5.03;2.58;;;17.40;53.60;;;;;;5044660;28;20546;-66
2021/04/29 05:04:47;;;;;;;5.35;2.60;;;17.40;53.30;;;;;;5045482;28;20404;-63
2021/04/29 05:07:13;;;;;;;6.63;2.50;;;17.40;54.40;;;;;;5047074;28;20025;-64
2021/04/29 05:09:41;;;;;;;5.90;2.60;;;17.40;53.40;;;;;;5047893;28;20484;-63
2021/04/29 05:12:08;;;;;;;10.13;3.17;;;17.40;53.40;;;;;;5047016;28;20025;-64
2021/04/29 05:14:34;;;;;;;6.85;3.10;;;17.40;55.20;;;;;;5037854;28;20877;-68
2021/04/29 05:16:59;;;;;;;11.88;3.47;;;17.40;54.00;;;;;;5047636;28;20029;-65
2021/04/29 05:19:25;;;;;;;10.95;2.92;;;17.50;55.10;;;;;;5029015;28;20554;-65
2021/04/29 05:21:50;;;;;;;7.38;2.83;;;17.40;54.00;;;;;;5028306;28;20058;-65
2021/04/29 05:24:16;;;;;;;7.38;2.92;;;17.40;53.70;;;;;;5028300;28;20025;-66
2021/04/29 05:26:41;;;;;;;8.02;3.55;;;17.40;54.50;;;;;;5046733;28;20679;-65
2021/04/29 05:29:08;;;;;;;6.22;3.17;;;17.40;54.80;;;;;;5046665;28;20758;-65
2021/04/29 05:31:34;;;;;;;7.57;3.15;;;17.40;54.50;;;;;;5028752;28;20655;-66
2021/04/29 05:34:00;;;;;;;7.85;2.83;;;17.40;54.80;;;;;;5046156;28;20553;-64
2021/04/29 05:36:26;;;;;;;7.78;3.70;;;17.40;54.50;;;;;;5028421;28;20025;-64
2021/04/29 05:38:51;;;;;;;10.30;3.97;;;17.40;54.80;;;;;;5032589;28;20589;-66
2021/04/29 05:41:17;;;;;;;7.88;3.97;;;17.40;55.40;;;;;;5028169;28;20763;-66
2021/04/29 05:43:42;;;;;;;13.52;3.42;;;17.30;55.70;;;;;;5026681;28;20056;-64
2021/04/29 05:46:08;;;;;;;7.88;2.92;;;17.40;55.90;;;;;;5044696;28;20029;-65
2021/04/29 05:48:33;;;;;;;7.15;3.78;;;17.40;55.60;;;;;;5045051;28;20036;-67
2021/04/29 05:50:59;;;;;;;7.70;3.25;;;17.40;56.60;;;;;;5050400;28;20157;-67
2021/04/29 05:53:25;;;;;;;9.00;3.08;;;17.40;55.10;;;;;;5035953;28;20029;-63
2021/04/29 05:55:51;;;;;;;8.55;3.50;;;17.40;54.90;;;;;;5050872;28;20108;-66
2021/04/29 05:58:16;;;;;;;8.45;3.15;;;17.40;55.60;;;;;;5054785;28;20029;-65
2021/04/29 06:00:42;;;;;;;7.15;3.03;;;17.30;55.30;;;;;;5034649;28;20025;-66
2021/04/29 06:03:08;;;;;;;6.88;3.03;;;17.40;54.60;;;;;;5034411;28;20104;-65
2021/04/29 06:05:33;;;;;;;8.90;2.92;;;17.40;54.80;;;;;;5052691;28;20450;-65
2021/04/29 06:08:00;;;;;;;7.72;3.05;;;17.40;54.60;;;;;;5039649;28;20083;-66
2021/04/29 06:10:27;;;;;;;8.82;2.90;;;17.30;54.40;;;;;;5034368;28;20089;-63
2021/04/29 06:12:52;;;;;;;9.13;2.78;;;17.30;54.40;;;;;;5034859;28;20553;-65
2021/04/29 06:15:19;;;;;;;6.85;3.00;;;17.30;54.40;;;;;;5051634;28;20091;-64
2021/04/29 06:17:45;;;;;;;6.63;2.85;;;17.30;54.50;;;;;;5052567;28;20388;-64
2021/04/29 06:20:11;;;;;;;6.25;2.80;;;17.30;55.00;;;;;;5052438;28;20025;-67
2021/04/29 06:22:37;;;;;;;6.30;2.63;;;17.30;55.90;;;;;;5034804;28;20092;-66
2021/04/29 06:25:03;;;;;;;5.30;2.67;;;17.20;54.40;;;;;;5051745;28;20509;-65
2021/04/29 06:27:29;;;;;;;6.90;3.00;;;17.30;55.50;;;;;;5052537;28;20025;-66
2021/04/29 06:29:54;;;;;;;7.45;2.90;;;17.20;54.80;;;;;;5052469;28;20074;-65
2021/04/29 06:32:20;;;;;;;5.55;2.60;;;17.30;55.60;;;;;;5052482;28;20029;-66
2021/04/29 06:34:46;;;;;;;7.40;2.70;;;17.20;54.70;;;;;;5052080;28;20021;-65
2021/04/29 06:37:12;;;;;;;5.63;2.60;;;17.20;54.50;;;;;;5052161;28;20391;-65
2021/04/29 06:39:38;;;;;;;4.80;2.72;;;17.20;54.30;;;;;;5052290;28;20032;-64
2021/04/29 06:42:03;;;;;;;5.43;2.30;;;17.20;55.10;;;;;;5051755;28;20032;-64
2021/04/29 06:44:30;;;;;;;6.28;2.70;;;17.20;54.30;;;;;;5055314;28;20031;-63
2021/04/29 06:46:56;;;;;;;5.10;2.60;;;17.20;54.60;;;;;;5033687;28;20025;-63
2021/04/29 06:49:21;;;;;;;5.07;2.55;;;17.20;54.10;;;;;;5046643;28;20059;-64
2021/04/29 06:51:47;;;;;;;7.88;2.63;;;17.30;54.90;;;;;;5048089;28;20415;-63
2021/04/29 06:54:12;;;;;;;4.75;2.63;;;17.20;55.80;;;;;;5050916;28;20029;-64
2021/04/29 06:56:38;;;;;;;4.32;2.42;;;17.30;55.80;;;;;;5050377;28;20033;-64
2021/04/29 06:59:04;;;;;;;6.35;2.63;;;17.30;55.80;;;;;;5050221;28;20024;-64
2021/04/29 07:01:30;;;;;;;5.50;2.78;;;17.30;55.00;;;;;;5050118;28;20103;-65
2021/04/29 07:03:56;;;;;;;6.18;2.60;;;17.30;55.40;;;;;;5049578;28;20100;-63
2021/04/29 07:06:22;;;;;;;5.18;2.75;;;17.40;54.80;;;;;;5049925;28;20017;-69
2021/04/29 07:08:48;;;;;;;4.90;2.58;;;17.40;54.50;;;;;;5060240;28;20021;-64
2021/04/29 07:11:14;;;;;;;6.03;2.70;;;17.40;54.80;;;;;;5049892;28;20047;-65
2021/04/29 07:13:40;;;;;;;6.68;3.08;;;17.40;54.60;;;;;;5053212;28;20064;-64
2021/04/29 07:16:05;;;;;;;6.40;2.90;;;17.50;54.70;;;;;;5051263;28;20103;-65
2021/04/29 07:18:32;;;;;;;5.45;2.75;;;17.50;54.20;;;;;;5070134;28;20107;-65
2021/04/29 07:20:57;;;;;;;8.23;2.80;;;17.50;54.40;;;;;;5071795;28;20028;-64
2021/04/29 07:23:23;;;;;;;6.90;3.15;;;17.40;54.40;;;;;;5069911;28;20036;-65
2021/04/29 07:25:49;;;;;;;5.57;3.03;;;17.50;54.30;;;;;;5051669;28;20036;-65
2021/04/29 07:28:15;;;;;;;5.95;2.90;;;17.40;54.40;;;;;;5051957;28;20025;-65
2021/04/29 07:30:40;;;;;;;6.25;2.65;;;17.50;54.50;;;;;;5051827;28;20025;-64
2021/04/29 07:33:08;;;;;;;6.55;2.85;;;17.50;54.50;;;;;;5033835;28;20035;-65
2021/04/29 07:35:33;;;;;;;6.43;2.83;;;17.50;54.30;;;;;;5050881;28;20392;-64
2021/04/29 07:37:59;;;;;;;4.70;2.70;;;17.60;53.80;;;;;;5033195;28;20104;-63
2021/04/29 07:40:25;;;;;;;5.40;2.85;;;17.60;53.50;;;;;;5051200;28;20488;-64
2021/04/29 07:42:50;;;;;;;5.43;2.90;;;17.70;53.30;;;;;;5051144;28;20097;-65
2021/04/29 07:45:16;;;;;;;4.43;2.42;;;17.70;53.30;;;;;;5051183;28;20392;-64
2021/04/29 07:47:41;;;;;;;5.65;2.53;;;17.70;53.30;;;;;;5050262;28;20447;-65
2021/04/29 07:50:08;;;;;;;4.65;2.75;;;17.90;52.80;;;;;;5032514;28;20550;-64
2021/04/29 07:52:34;;;;;;;5.70;2.97;;;17.90;52.40;;;;;;5053833;28;20047;-65
2021/04/29 07:55:01;;;;;;;7.78;2.80;;;17.90;52.80;;;;;;5050511;28;20045;-65
2021/04/29 07:57:27;;;;;;;5.10;2.80;;;17.90;52.60;;;;;;5051159;28;20056;-64
2021/04/29 07:59:52;;;;;;;6.10;3.10;;;18.00;52.50;;;;;;5033423;28;20045;-65
2021/04/29 08:02:18;;;;;;;5.70;2.70;;;18.00;52.70;;;;;;5050841;28;20029;-64
2021/04/29 08:04:43;;;;;;;5.38;3.10;;;17.90;52.60;;;;;;5045933;28;20021;-64
2021/04/29 08:07:09;;;;;;;5.55;3.08;;;17.80;52.70;;;;;;5033170;28;20082;-64
2021/04/29 08:09:34;;;;;;;7.68;2.80;;;17.80;52.70;;;;;;5030243;28;20060;-66
2021/04/29 08:12:00;;;;;;;5.43;3.20;;;17.80;52.90;;;;;;5029892;28;20116;-65
2021/04/29 08:14:26;;;;;;;5.35;2.80;;;17.80;52.60;;;;;;5049951;28;20029;-65
2021/04/29 08:16:51;;;;;;;5.25;3.10;;;17.90;53.00;;;;;;5050058;28;20029;-64
2021/04/29 08:19:17;;;;;;;7.13;3.50;;;17.80;52.70;;;;;;5049838;28;20028;-64
2021/04/29 08:21:43;;;;;;;5.80;3.33;;;17.80;52.60;;;;;;5031363;28;20065;-62
2021/04/29 08:24:08;;;;;;;5.50;3.30;;;17.90;52.60;;;;;;5049827;28;20035;-65
2021/04/29 08:26:34;;;;;;;6.07;3.70;;;17.90;52.70;;;;;;5049765;28;20021;-65
2021/04/29 08:29:01;;;;;;;7.00;5.00;;;17.90;52.40;;;;;;5052910;28;20035;-65
2021/04/29 08:31:26;;;;;;;6.28;3.70;;;17.90;52.60;;;;;;5050207;28;20480;-65
2021/04/29 08:33:53;;;;;;;8.45;4.82;;;18.00;52.20;;;;;;5049732;28;20028;-66
2021/04/29 08:36:19;;;;;;;7.40;4.38;;;18.10;52.20;;;;;;5049514;28;20016;-64
2021/04/29 08:38:44;;;;;;;6.82;4.28;;;18.30;51.70;;;;;;5053651;28;20020;-65
2021/04/29 08:41:10;;;;;;;6.00;3.80;;;18.70;51.90;;;;;;5053442;28;20059;-65
2021/04/29 08:43:37;;;;;;;6.72;3.88;;;18.90;50.20;;;;;;5053816;28;20087;-65
2021/04/29 08:46:05;;;;;;;5.82;3.05;;;18.90;50.20;;;;;;5054133;28;20024;-64
2021/04/29 08:48:31;;;;;;;10.82;8.65;;;19.10;49.60;;;;;;5053551;28;20087;-65
2021/04/29 08:50:57;;;;;;;8.27;4.80;;;19.20;50.80;;;;;;5053881;28;20033;-65
2021/04/29 08:53:22;;;;;;;7.93;5.53;;;19.30;48.70;;;;;;5053435;28;20060;-65
2021/04/29 08:55:48;;;;;;;7.43;4.70;;;19.40;49.30;;;;;;5053634;28;20025;-65
2021/04/29 08:58:14;;;;;;;6.15;4.03;;;19.60;48.20;;;;;;5036102;28;20053;-64
2021/04/29 09:00:40;;;;;;;5.45;3.63;;;19.80;47.30;;;;;;5036314;28;20075;-65
2021/04/29 09:03:06;;;;;;;10.32;7.95;;;19.90;46.90;;;;;;5056047;28;20025;-66
2021/04/29 09:05:33;;;;;;;9.10;6.72;;;20.10;47.30;;;;;;5053330;28;20021;-66
2021/04/29 09:08:08;;;;;;;10.05;7.22;;;20.10;47.00;;;;;;5035655;28;20039;-67
2021/04/29 09:10:37;;;;;;;9.45;6.22;;;20.10;47.40;;;;;;5025997;28;20047;-68
2021/04/29 09:13:22;;;;;;;8.13;6.18;;;20.20;47.00;;;;;;5054912;28;20035;-66
2021/04/29 09:15:50;;;;;;;11.55;5.78;;;20.40;47.30;;;;;;5079859;22;20610;-63
2021/04/29 09:18:18;;;;;;;11.27;7.22;;;20.60;46.20;;;;;;5058862;28;20538;-65
2021/04/29 09:20:58;;;;;;;8.45;4.90;;;20.50;47.00;;;;;;5034332;28;20121;-64
2021/04/29 09:23:25;;;;;;;8.27;5.82;;;20.20;46.20;;;;;;5033815;28;20022;-65
2021/04/29 09:25:52;;;;;;;8.73;6.28;;;20.10;46.90;;;;;;5055748;28;20570;-65
2021/04/29 09:28:18;;;;;;;10.15;6.75;;;20.10;47.00;;;;;;5056631;28;20104;-64
2021/04/29 09:30:44;;;;;;;10.05;7.47;;;20.10;47.00;;;;;;5052264;28;20052;-66
2021/04/29 09:33:09;;;;;;;10.57;7.07;;;19.90;47.40;;;;;;5042306;28;20033;-63
2021/04/29 09:35:38;;;;;;;8.70;5.82;;;19.70;47.50;;;;;;5064480;28;20032;-63
2021/04/29 09:38:09;;;;;;;12.35;6.18;;;19.60;47.70;;;;;;5055215;28;20035;-63
2021/04/29 09:40:38;;;;;;;9.23;6.32;;;19.50;48.20;;;;;;5068740;28;20112;-64
2021/04/29 09:43:07;;;;;;;8.23;6.18;;;19.40;48.30;;;;;;5050147;28;20017;-63
2021/04/29 09:45:35;;;;;;;9.77;6.30;;;19.60;48.60;;;;;;5035160;28;20491;-64
2021/04/29 09:48:08;;;;;;;8.15;5.47;;;19.60;48.60;;;;;;5068704;28;20020;-63
2021/04/29 09:50:39;;;;;;;9.07;6.47;;;20.10;47.90;;;;;;5069643;28;20059;-64
2021/04/29 09:53:12;;;;;;;8.50;5.97;;;19.90;47.10;;;;;;5053182;28;20060;-64
2021/04/29 09:55:40;;;;;;;9.30;6.32;;;19.70;47.30;;;;;;5052076;28;20518;-65
2021/04/29 09:58:15;;;;;;;10.18;6.32;;;19.60;47.90;;;;;;5052997;28;20025;-64
2021/04/29 10:00:46;;;;;;;8.77;6.32;;;19.90;47.70;;;;;;5046508;28;20036;-63
2021/04/29 10:03:13;;;;;;;9.32;6.47;;;20.00;47.60;;;;;;5064834;28;20024;-63
2021/04/29 10:05:40;;;;;;;9.13;6.38;;;19.90;47.00;;;;;;5041918;28;20032;-66
2021/04/29 10:08:12;;;;;;;9.50;6.28;;;19.70;47.30;;;;;;5058551;28;20100;-64
2021/04/29 10:10:39;;;;;;;8.88;6.57;;;19.80;48.00;;;;;;5054667;28;20021;-64
2021/04/29 10:13:07;;;;;;;9.30;6.53;;;20.30;47.00;;;;;;5070812;28;20028;-64
2021/04/29 10:15:38;;;;;;;9.77;7.25;;;20.60;46.00;;;;;;5033999;28;20032;-63
2021/04/29 10:18:08;;;;;;;8.30;6.05;;;20.50;45.80;;;;;;5056542;28;20129;-63
2021/04/29 10:20:37;;;;;;;10.32;7.75;;;20.70;45.90;;;;;;5066023;28;20025;-64
2021/04/29 10:23:03;;;;;;;10.45;7.47;;;21.00;45.20;;;;;;5066999;28;20013;-63
2021/04/29 10:25:33;;;;;;;9.27;6.78;;;20.90;44.60;;;;;;5053434;28;20090;-64
2021/04/29 10:28:00;;;;;;;9.05;6.25;;;20.80;44.90;;;;;;5051263;28;20033;-65
2021/04/29 10:30:37;;;;;;;9.02;6.70;;;20.50;45.30;;;;;;5032435;28;20543;-66
2021/04/29 10:33:17;;;;;;;9.40;7.70;;;20.40;46.20;;;;;;5069031;28;20033;-63
2021/04/29 10:35:57;;;;;;;11.43;8.97;;;20.60;46.10;;;;;;5065009;28;20017;-63
2021/04/29 10:38:30;;;;;;;10.82;8.75;;;20.40;46.10;;;;;;5043255;28;20119;-64
2021/04/29 10:41:04;;;;;;;9.70;7.10;;;20.20;46.30;;;;;;5071656;28;20024;-65
2021/04/29 10:43:36;;;;;;;11.65;7.40;;;20.00;46.70;;;;;;5058859;28;20021;-64
2021/04/29 10:46:04;;;;;;;;;;;19.80;46.80;;;;;;5053806;28;20174;-64
2021/04/29 10:48:31;;;;;;;10.80;7.15;;;20.10;47.40;;;;;;5057388;28;20300;-64
2021/04/29 10:51:05;;;;;;;10.30;7.50;;;20.30;46.00;;;;;;5060161;28;20036;-66
2021/04/29 10:53:32;;;;;;;10.98;8.10;;;20.00;46.30;;;;;;5055264;28;20033;-64
2021/04/29 10:56:03;;;;;;;11.25;7.82;;;19.80;47.10;;;;;;5034144;28;20037;-66
2021/04/29 10:58:29;;;;;;;9.52;7.03;;;19.80;47.60;;;;;;5051788;28;20115;-64
2021/04/29 11:01:13;;;;;;;10.52;7.45;;;20.20;46.50;;;;;;5050734;28;20116;-65
2021/04/29 11:03:49;;;;;;;11.95;8.50;;;20.50;45.90;;;;;;5033816;28;20391;-63
2021/04/29 11:06:16;;;;;;;9.32;7.45;;;20.50;45.50;;;;;;5051544;28;20029;-63
2021/04/29 11:08:50;;;;;;;9.88;8.05;;;20.50;45.70;;;;;;5071250;28;20511;-64
2021/04/29 11:11:25;;;;;;;11.63;8.45;;;20.20;45.90;;;;;;5071099;28;20036;-63
2021/04/29 11:14:10;;;;;;;11.57;8.85;;;20.00;46.20;;;;;;5040131;28;20803;-63
2021/04/29 11:16:54;;;;;;;9.93;8.05;;;19.80;46.70;;;;;;5034308;28;20039;-64
2021/04/29 11:19:44;;;;;;;11.05;8.80;;;19.80;46.80;;;;;;5034262;28;20021;-65
2021/04/29 11:22:27;;;;;;;11.55;9.65;;;20.10;47.00;;;;;;5053820;28;20021;-64
2021/04/29 11:24:54;;;;;;;13.95;11.70;;;20.40;46.20;;;;;;5059542;28;20336;-64
2021/04/29 11:27:34;;;;;;;12.23;9.13;;;20.60;45.80;;;;;;5038557;28;20024;-65
2021/04/29 11:30:06;;;;;;;12.43;10.88;;;20.70;45.30;;;;;;5051789;28;20484;-66
2021/04/29 11:32:33;;;;;;;11.10;9.13;;;20.80;45.00;;;;;;5056859;28;20581;-64
2021/04/29 11:35:01;;;;;;;12.18;9.93;;;20.90;44.70;;;;;;5056186;28;20559;-64
2021/04/29 11:37:27;;;;;;;10.98;9.75;;;20.90;44.60;;;;;;5033825;28;20658;-67
2021/04/29 11:40:00;;;;;;;12.10;10.30;;;20.90;44.40;;;;;;5051479;28;20075;-66
2021/04/29 11:42:32;;;;;;;12.55;10.35;;;20.80;44.50;;;;;;5051699;28;20009;-66
2021/04/29 11:45:13;;;;;;;;;;;20.70;45.20;;;;;;5054697;28;20484;-66
2021/04/29 11:47:40;;;;;;;17.70;12.27;;;20.50;45.40;;;;;;5061612;28;19931;-67
2021/04/29 11:50:18;;;;;;;19.05;11.60;;;20.60;45.40;;;;;;5052377;28;20679;-66
2021/04/29 11:52:44;;;;;;;18.55;10.65;;;20.60;45.20;;;;;;5034158;28;20510;-68
2021/04/29 11:55:10;;;;;;;16.33;10.02;;;20.60;45.20;;;;;;5033067;28;20028;-65
2021/04/29 11:57:35;;;;;;;16.40;10.25;;;20.50;45.30;;;;;;5033557;28;20063;-64
2021/04/29 12:00:01;;;;;;;25.70;11.98;;;20.30;45.40;;;;;;5044713;28;20491;-65
2021/04/29 12:02:26;;;;;;;26.25;11.40;;;20.20;45.70;;;;;;5071019;28;20036;-64
2021/04/29 12:04:52;;;;;;;17.92;11.63;;;20.20;45.80;;;;;;5068181;28;20020;-65
2021/04/29 12:07:18;;;;;;;15.25;10.65;;;20.20;46.00;;;;;;5053037;28;20024;-64
2021/04/29 12:09:44;;;;;;;14.90;12.90;;;20.20;46.00;;;;;;5053609;28;20029;-65
2021/04/29 12:12:18;;;;;;;16.20;11.35;;;20.20;46.50;;;;;;5061519;28;20024;-65
2021/04/29 12:14:54;;;;;;;17.80;11.23;;;20.10;46.10;;;;;;5035226;28;20037;-65
2021/04/29 12:17:21;;;;;;;17.02;11.45;;;20.10;46.40;;;;;;5067921;28;20082;-65
2021/04/29 12:19:50;;;;;;;14.13;11.38;;;20.00;46.30;;;;;;5071092;28;20638;-65
2021/04/29 12:22:19;;;;;;;16.27;11.70;;;19.90;46.40;;;;;;5071218;28;20025;-68
2021/04/29 12:24:45;;;;;;;15.75;11.07;;;19.90;46.70;;;;;;5070782;28;20518;-64
2021/04/29 12:27:13;;;;;;;13.38;10.82;;;19.80;46.80;;;;;;5071257;28;20033;-65
2021/04/29 12:29:38;;;;;;;13.45;10.63;;;19.80;46.80;;;;;;5064489;28;20025;-65
2021/04/29 12:32:04;;;;;;;15.77;10.85;;;19.90;47.00;;;;;;5065193;28;20103;-64
2021/04/29 12:34:30;;;;;;;15.00;10.95;;;19.80;46.70;;;;;;5058621;28;20710;-65
2021/04/29 12:37:06;;;;;;;12.57;10.00;;;19.90;46.50;;;;;;5062130;28;20116;-65
2021/04/29 12:39:50;;;;;;;13.57;9.18;;;19.80;46.50;;;;;;5034652;28;20032;-64
2021/04/29 12:42:20;;;;;;;12.43;9.55;;;19.80;46.70;;;;;;5033078;28;20040;-65
2021/04/29 12:44:55;;;;;;;13.55;9.73;;;19.80;46.60;;;;;;5059544;28;20028;-65
2021/04/29 12:47:25;;;;;;;12.07;8.90;;;19.80;46.80;;;;;;5052629;28;20036;-68